Silver Bell, Arizona
Current Conditions -  °F | °C
As of 3:35 AM on Monday 22 Dec 2014 (Local Time) from KAVQ Reporting Station
Clear Clear  
Wind Chill: 41°   Ceiling: Unl
Heat Index: 44°   Visibility: 10mi
Dew Point: 41°   Wind: 6mph
Humidity: 89%   Direction: 90°E
Pressure: 30.04"   Gusts: NA
Location:  32.38°N, 111.5°W
Report Text: KAVQ 221035Z AUTO 09005KT 10SM CLR 07/05 A3004 RMK AO2 T00690052
Loading
Personal Weather Stations






























Interactive Weather Map New forecast layout! Learn more

10-Day Weather Forecast

Advertisements
Track Severe Weather on mobile